sensor_id;sensor_type;location;lat;lon;timestamp;P1;durP1;ratioP1;P2;durP2;ratioP2
42118;SDS011;27783;42.782;23.274;2023-03-02T00:00:55;5.75;;;4.55;;
42118;SDS011;27783;42.782;23.274;2023-03-02T00:03:34;4.93;;;3.63;;
42118;SDS011;27783;42.782;23.274;2023-03-02T00:06:01;3.95;;;3.20;;
42118;SDS011;27783;42.782;23.274;2023-03-02T00:08:30;6.47;;;4.78;;
42118;SDS011;27783;42.782;23.274;2023-03-02T00:10:58;8.30;;;5.93;;
42118;SDS011;27783;42.782;23.274;2023-03-02T00:13:25;8.60;;;5.65;;
42118;SDS011;27783;42.782;23.274;2023-03-02T00:15:55;5.47;;;3.97;;
42118;SDS011;27783;42.782;23.274;2023-03-02T00:18:20;5.10;;;3.47;;
42118;SDS011;27783;42.782;23.274;2023-03-02T00:20:46;6.22;;;3.53;;
42118;SDS011;27783;42.782;23.274;2023-03-02T00:23:14;4.97;;;4.03;;
42118;SDS011;27783;42.782;23.274;2023-03-02T00:25:40;6.22;;;4.88;;
42118;SDS011;27783;42.782;23.274;2023-03-02T00:28:06;4.78;;;2.95;;
42118;SDS011;27783;42.782;23.274;2023-03-02T00:30:33;4.07;;;3.08;;
42118;SDS011;27783;42.782;23.274;2023-03-02T00:32:59;4.97;;;3.85;;
42118;SDS011;27783;42.782;23.274;2023-03-02T00:35:25;4.50;;;3.93;;
42118;SDS011;27783;42.782;23.274;2023-03-02T00:37:55;4.85;;;4.07;;
42118;SDS011;27783;42.782;23.274;2023-03-02T00:40:20;4.85;;;3.65;;
42118;SDS011;27783;42.782;23.274;2023-03-02T00:42:46;6.05;;;5.43;;
42118;SDS011;27783;42.782;23.274;2023-03-02T00:45:11;7.90;;;6.32;;
42118;SDS011;27783;42.782;23.274;2023-03-02T00:47:38;6.13;;;4.25;;
42118;SDS011;27783;42.782;23.274;2023-03-02T00:50:04;4.93;;;4.32;;
42118;SDS011;27783;42.782;23.274;2023-03-02T00:52:31;5.57;;;4.60;;
42118;SDS011;27783;42.782;23.274;2023-03-02T00:54:57;5.32;;;4.82;;
42118;SDS011;27783;42.782;23.274;2023-03-02T00:57:22;7.45;;;5.80;;
42118;SDS011;27783;42.782;23.274;2023-03-02T00:59:49;6.25;;;5.07;;
42118;SDS011;27783;42.782;23.274;2023-03-02T01:02:16;5.65;;;4.10;;
42118;SDS011;27783;42.782;23.274;2023-03-02T01:04:49;4.90;;;4.38;;
42118;SDS011;27783;42.782;23.274;2023-03-02T01:07:18;4.65;;;3.95;;
42118;SDS011;27783;42.782;23.274;2023-03-02T01:09:50;4.25;;;3.38;;
42118;SDS011;27783;42.782;23.274;2023-03-02T01:12:17;7.57;;;4.47;;
42118;SDS011;27783;42.782;23.274;2023-03-02T01:14:44;6.43;;;4.22;;
42118;SDS011;27783;42.782;23.274;2023-03-02T01:17:11;4.22;;;3.80;;
42118;SDS011;27783;42.782;23.274;2023-03-02T01:19:37;4.70;;;4.20;;
42118;SDS011;27783;42.782;23.274;2023-03-02T01:22:04;5.22;;;4.13;;
42118;SDS011;27783;42.782;23.274;2023-03-02T01:24:30;4.47;;;3.25;;
42118;SDS011;27783;42.782;23.274;2023-03-02T01:26:57;4.53;;;3.58;;
42118;SDS011;27783;42.782;23.274;2023-03-02T01:29:25;7.72;;;5.90;;
42118;SDS011;27783;42.782;23.274;2023-03-02T01:31:51;8.33;;;6.80;;
42118;SDS011;27783;42.782;23.274;2023-03-02T01:34:18;6.32;;;4.05;;
42118;SDS011;27783;42.782;23.274;2023-03-02T01:36:44;5.50;;;3.58;;
42118;SDS011;27783;42.782;23.274;2023-03-02T01:39:10;7.57;;;4.85;;
42118;SDS011;27783;42.782;23.274;2023-03-02T01:41:41;6.35;;;4.20;;
42118;SDS011;27783;42.782;23.274;2023-03-02T01:47:43;6.15;;;4.47;;
42118;SDS011;27783;42.782;23.274;2023-03-02T01:50:35;5.80;;;3.83;;
42118;SDS011;27783;42.782;23.274;2023-03-02T01:52:48;6.05;;;2.80;;
42118;SDS011;27783;42.782;23.274;2023-03-02T01:55:15;3.88;;;2.17;;
42118;SDS011;27783;42.782;23.274;2023-03-02T01:57:46;3.10;;;2.67;;
42118;SDS011;27783;42.782;23.274;2023-03-02T02:00:19;4.10;;;3.47;;
42118;SDS011;27783;42.782;23.274;2023-03-02T02:02:48;4.50;;;2.55;;
42118;SDS011;27783;42.782;23.274;2023-03-02T02:05:20;3.03;;;2.25;;
42118;SDS011;27783;42.782;23.274;2023-03-02T02:07:48;3.65;;;2.90;;
42118;SDS011;27783;42.782;23.274;2023-03-02T02:10:13;4.18;;;3.00;;
42118;SDS011;27783;42.782;23.274;2023-03-02T02:12:40;4.68;;;3.33;;
42118;SDS011;27783;42.782;23.274;2023-03-02T02:15:07;6.20;;;3.28;;
42118;SDS011;27783;42.782;23.274;2023-03-02T02:17:34;3.30;;;3.00;;
42118;SDS011;27783;42.782;23.274;2023-03-02T02:25:00;5.03;;;3.63;;
42118;SDS011;27783;42.782;23.274;2023-03-02T02:27:31;4.50;;;3.95;;
42118;SDS011;27783;42.782;23.274;2023-03-02T02:30:17;4.18;;;2.85;;
42118;SDS011;27783;42.782;23.274;2023-03-02T02:32:48;4.43;;;3.05;;
42118;SDS011;27783;42.782;23.274;2023-03-02T02:35:22;4.32;;;2.95;;
42118;SDS011;27783;42.782;23.274;2023-03-02T02:38:08;5.20;;;2.75;;
42118;SDS011;27783;42.782;23.274;2023-03-02T02:40:41;4.40;;;2.65;;
42118;SDS011;27783;42.782;23.274;2023-03-02T02:43:20;5.18;;;2.47;;
42118;SDS011;27783;42.782;23.274;2023-03-02T02:45:49;3.70;;;2.05;;
42118;SDS011;27783;42.782;23.274;2023-03-02T02:48:17;2.90;;;1.67;;
42118;SDS011;27783;42.782;23.274;2023-03-02T02:50:45;2.75;;;2.15;;
42118;SDS011;27783;42.782;23.274;2023-03-02T02:53:17;2.60;;;1.57;;
42118;SDS011;27783;42.782;23.274;2023-03-02T02:55:46;4.20;;;1.73;;
42118;SDS011;27783;42.782;23.274;2023-03-02T03:01:11;3.47;;;1.20;;
42118;SDS011;27783;42.782;23.274;2023-03-02T03:03:42;2.65;;;1.65;;
42118;SDS011;27783;42.782;23.274;2023-03-02T03:06:31;3.47;;;2.28;;
42118;SDS011;27783;42.782;23.274;2023-03-02T03:09:11;2.65;;;1.42;;
42118;SDS011;27783;42.782;23.274;2023-03-02T03:11:38;4.63;;;1.88;;
42118;SDS011;27783;42.782;23.274;2023-03-02T03:14:10;2.90;;;1.90;;
42118;SDS011;27783;42.782;23.274;2023-03-02T03:16:41;2.20;;;1.45;;
42118;SDS011;27783;42.782;23.274;2023-03-02T03:19:25;4.15;;;2.10;;
42118;SDS011;27783;42.782;23.274;2023-03-02T03:21:55;3.85;;;2.80;;
42118;SDS011;27783;42.782;23.274;2023-03-02T03:24:24;3.67;;;2.40;;
42118;SDS011;27783;42.782;23.274;2023-03-02T03:26:54;2.47;;;1.98;;
42118;SDS011;27783;42.782;23.274;2023-03-02T03:29:22;2.33;;;1.90;;
42118;SDS011;27783;42.782;23.274;2023-03-02T03:34:17;4.47;;;2.72;;
42118;SDS011;27783;42.782;23.274;2023-03-02T03:36:44;3.25;;;2.15;;
42118;SDS011;27783;42.782;23.274;2023-03-02T03:39:11;5.32;;;1.90;;
42118;SDS011;27783;42.782;23.274;2023-03-02T03:41:37;3.25;;;2.13;;
42118;SDS011;27783;42.782;23.274;2023-03-02T03:44:03;4.22;;;2.58;;
42118;SDS011;27783;42.782;23.274;2023-03-02T03:46:31;2.90;;;2.10;;
42118;SDS011;27783;42.782;23.274;2023-03-02T03:48:57;2.30;;;1.58;;
42118;SDS011;27783;42.782;23.274;2023-03-02T03:51:24;2.67;;;1.70;;
42118;SDS011;27783;42.782;23.274;2023-03-02T03:53:50;2.22;;;1.35;;
42118;SDS011;27783;42.782;23.274;2023-03-02T03:56:30;2.53;;;1.63;;
42118;SDS011;27783;42.782;23.274;2023-03-02T03:58:59;3.67;;;2.60;;
42118;SDS011;27783;42.782;23.274;2023-03-02T04:01:39;2.15;;;1.50;;
42118;SDS011;27783;42.782;23.274;2023-03-02T04:04:07;3.58;;;2.10;;
42118;SDS011;27783;42.782;23.274;2023-03-02T04:06:35;2.60;;;1.65;;
42118;SDS011;27783;42.782;23.274;2023-03-02T04:09:02;1.73;;;1.33;;
42118;SDS011;27783;42.782;23.274;2023-03-02T04:11:30;2.55;;;1.20;;
42118;SDS011;27783;42.782;23.274;2023-03-02T04:13:58;1.83;;;1.17;;
42118;SDS011;27783;42.782;23.274;2023-03-02T04:16:24;1.60;;;1.23;;
42118;SDS011;27783;42.782;23.274;2023-03-02T04:18:51;1.10;;;0.88;;
42118;SDS011;27783;42.782;23.274;2023-03-02T04:21:18;2.63;;;1.05;;
42118;SDS011;27783;42.782;23.274;2023-03-02T04:23:44;2.38;;;1.20;;
42118;SDS011;27783;42.782;23.274;2023-03-02T04:26:12;3.58;;;1.60;;
42118;SDS011;27783;42.782;23.274;2023-03-02T04:28:37;2.35;;;1.40;;
42118;SDS011;27783;42.782;23.274;2023-03-02T04:31:03;1.88;;;1.15;;
42118;SDS011;27783;42.782;23.274;2023-03-02T04:33:28;2.50;;;1.27;;
42118;SDS011;27783;42.782;23.274;2023-03-02T04:35:56;1.38;;;1.05;;
42118;SDS011;27783;42.782;23.274;2023-03-02T04:38:21;2.83;;;1.20;;
42118;SDS011;27783;42.782;23.274;2023-03-02T04:40:47;3.08;;;1.42;;
42118;SDS011;27783;42.782;23.274;2023-03-02T04:43:13;1.60;;;1.20;;
42118;SDS011;27783;42.782;23.274;2023-03-02T04:45:41;1.95;;;1.30;;
42118;SDS011;27783;42.782;23.274;2023-03-02T04:48:06;1.98;;;0.80;;
42118;SDS011;27783;42.782;23.274;2023-03-02T04:50:32;2.83;;;1.10;;
42118;SDS011;27783;42.782;23.274;2023-03-02T04:52:58;1.70;;;1.10;;
42118;SDS011;27783;42.782;23.274;2023-03-02T04:55:24;2.30;;;1.25;;
42118;SDS011;27783;42.782;23.274;2023-03-02T04:57:51;1.42;;;0.90;;
42118;SDS011;27783;42.782;23.274;2023-03-02T05:00:18;1.77;;;1.00;;
42118;SDS011;27783;42.782;23.274;2023-03-02T05:02:45;3.83;;;2.38;;
42118;SDS011;27783;42.782;23.274;2023-03-02T05:05:16;2.78;;;1.35;;
42118;SDS011;27783;42.782;23.274;2023-03-02T05:07:43;2.17;;;1.00;;
42118;SDS011;27783;42.782;23.274;2023-03-02T05:10:10;2.08;;;1.27;;
42118;SDS011;27783;42.782;23.274;2023-03-02T05:12:38;3.08;;;1.10;;
42118;SDS011;27783;42.782;23.274;2023-03-02T05:15:33;1.60;;;1.10;;
42118;SDS011;27783;42.782;23.274;2023-03-02T05:18:01;1.80;;;1.00;;
42118;SDS011;27783;42.782;23.274;2023-03-02T05:20:27;4.43;;;1.10;;
42118;SDS011;27783;42.782;23.274;2023-03-02T05:22:55;3.33;;;1.40;;
42118;SDS011;27783;42.782;23.274;2023-03-02T05:25:21;2.97;;;1.30;;
42118;SDS011;27783;42.782;23.274;2023-03-02T05:27:47;2.65;;;1.20;;
42118;SDS011;27783;42.782;23.274;2023-03-02T05:30:13;2.30;;;1.38;;
42118;SDS011;27783;42.782;23.274;2023-03-02T05:32:38;2.42;;;1.48;;
42118;SDS011;27783;42.782;23.274;2023-03-02T05:35:04;1.40;;;1.13;;
42118;SDS011;27783;42.782;23.274;2023-03-02T05:37:30;1.88;;;1.13;;
42118;SDS011;27783;42.782;23.274;2023-03-02T05:39:55;2.15;;;1.60;;
42118;SDS011;27783;42.782;23.274;2023-03-02T05:42:21;3.03;;;1.67;;
42118;SDS011;27783;42.782;23.274;2023-03-02T05:44:46;2.08;;;1.50;;
42118;SDS011;27783;42.782;23.274;2023-03-02T05:47:12;3.17;;;1.65;;
42118;SDS011;27783;42.782;23.274;2023-03-02T05:49:37;2.78;;;1.75;;
42118;SDS011;27783;42.782;23.274;2023-03-02T05:52:02;1.98;;;1.42;;
42118;SDS011;27783;42.782;23.274;2023-03-02T05:54:28;2.05;;;1.60;;
42118;SDS011;27783;42.782;23.274;2023-03-02T05:56:53;2.20;;;2.00;;
42118;SDS011;27783;42.782;23.274;2023-03-02T05:59:19;4.97;;;2.30;;
42118;SDS011;27783;42.782;23.274;2023-03-02T06:01:44;2.42;;;2.20;;
42118;SDS011;27783;42.782;23.274;2023-03-02T06:04:09;4.03;;;2.08;;
42118;SDS011;27783;42.782;23.274;2023-03-02T06:06:35;2.88;;;2.38;;
42118;SDS011;27783;42.782;23.274;2023-03-02T06:09:00;2.88;;;2.53;;
42118;SDS011;27783;42.782;23.274;2023-03-02T06:11:26;2.55;;;2.20;;
42118;SDS011;27783;42.782;23.274;2023-03-02T06:13:51;3.67;;;2.92;;
42118;SDS011;27783;42.782;23.274;2023-03-02T06:16:16;3.90;;;3.35;;
42118;SDS011;27783;42.782;23.274;2023-03-02T06:18:42;11.07;;;3.13;;
42118;SDS011;27783;42.782;23.274;2023-03-02T06:21:07;3.63;;;2.63;;
42118;SDS011;27783;42.782;23.274;2023-03-02T06:23:33;6.53;;;5.00;;
42118;SDS011;27783;42.782;23.274;2023-03-02T06:25:58;11.25;;;7.35;;
42118;SDS011;27783;42.782;23.274;2023-03-02T06:28:24;3.25;;;2.70;;
42118;SDS011;27783;42.782;23.274;2023-03-02T06:30:50;6.57;;;4.90;;
42118;SDS011;27783;42.782;23.274;2023-03-02T06:33:17;6.90;;;4.60;;
42118;SDS011;27783;42.782;23.274;2023-03-02T06:35:44;5.97;;;5.13;;
42118;SDS011;27783;42.782;23.274;2023-03-02T06:38:09;6.32;;;4.65;;
42118;SDS011;27783;42.782;23.274;2023-03-02T06:40:35;11.00;;;5.95;;
42118;SDS011;27783;42.782;23.274;2023-03-02T06:43:00;5.25;;;3.58;;
42118;SDS011;27783;42.782;23.274;2023-03-02T06:45:26;4.72;;;4.28;;
42118;SDS011;27783;42.782;23.274;2023-03-02T06:47:53;5.20;;;4.70;;
42118;SDS011;27783;42.782;23.274;2023-03-02T06:50:18;5.63;;;5.03;;
42118;SDS011;27783;42.782;23.274;2023-03-02T06:52:44;8.00;;;7.22;;
42118;SDS011;27783;42.782;23.274;2023-03-02T06:55:09;14.18;;;8.15;;
42118;SDS011;27783;42.782;23.274;2023-03-02T06:57:34;8.55;;;6.97;;
42118;SDS011;27783;42.782;23.274;2023-03-02T07:00:00;9.35;;;6.78;;
42118;SDS011;27783;42.782;23.274;2023-03-02T07:02:30;8.32;;;6.68;;
42118;SDS011;27783;42.782;23.274;2023-03-02T07:04:56;9.55;;;8.07;;
42118;SDS011;27783;42.782;23.274;2023-03-02T07:07:21;18.73;;;13.27;;
42118;SDS011;27783;42.782;23.274;2023-03-02T07:09:46;28.63;;;18.63;;
42118;SDS011;27783;42.782;23.274;2023-03-02T07:12:12;28.75;;;19.10;;
42118;SDS011;27783;42.782;23.274;2023-03-02T07:14:37;19.88;;;17.33;;
42118;SDS011;27783;42.782;23.274;2023-03-02T07:17:03;19.30;;;16.65;;
42118;SDS011;27783;42.782;23.274;2023-03-02T07:19:29;11.48;;;10.38;;
42118;SDS011;27783;42.782;23.274;2023-03-02T07:21:54;10.48;;;9.45;;
42118;SDS011;27783;42.782;23.274;2023-03-02T07:24:20;12.48;;;10.32;;
42118;SDS011;27783;42.782;23.274;2023-03-02T07:26:46;14.05;;;12.27;;
42118;SDS011;27783;42.782;23.274;2023-03-02T07:29:11;11.10;;;9.98;;
42118;SDS011;27783;42.782;23.274;2023-03-02T07:31:37;9.10;;;7.93;;
42118;SDS011;27783;42.782;23.274;2023-03-02T07:34:02;7.47;;;6.20;;
42118;SDS011;27783;42.782;23.274;2023-03-02T07:36:28;8.90;;;6.97;;
42118;SDS011;27783;42.782;23.274;2023-03-02T07:38:54;8.93;;;6.60;;
42118;SDS011;27783;42.782;23.274;2023-03-02T07:41:19;7.68;;;6.97;;
42118;SDS011;27783;42.782;23.274;2023-03-02T07:43:44;8.45;;;6.45;;
42118;SDS011;27783;42.782;23.274;2023-03-02T07:46:10;11.45;;;10.07;;
42118;SDS011;27783;42.782;23.274;2023-03-02T07:48:35;11.75;;;10.57;;
42118;SDS011;27783;42.782;23.274;2023-03-02T07:51:01;11.02;;;10.02;;
42118;SDS011;27783;42.782;23.274;2023-03-02T07:53:29;7.05;;;6.15;;
42118;SDS011;27783;42.782;23.274;2023-03-02T07:55:54;7.05;;;6.38;;
42118;SDS011;27783;42.782;23.274;2023-03-02T07:58:20;8.27;;;7.55;;
42118;SDS011;27783;42.782;23.274;2023-03-02T08:00:46;10.63;;;9.73;;
42118;SDS011;27783;42.782;23.274;2023-03-02T08:03:11;12.63;;;11.52;;
42118;SDS011;27783;42.782;23.274;2023-03-02T08:05:37;9.18;;;8.27;;
42118;SDS011;27783;42.782;23.274;2023-03-02T08:08:02;9.77;;;8.77;;
42118;SDS011;27783;42.782;23.274;2023-03-02T08:10:27;8.13;;;7.32;;
42118;SDS011;27783;42.782;23.274;2023-03-02T08:12:53;7.70;;;6.88;;
42118;SDS011;27783;42.782;23.274;2023-03-02T08:15:18;5.82;;;5.32;;
42118;SDS011;27783;42.782;23.274;2023-03-02T08:17:44;5.05;;;4.65;;
42118;SDS011;27783;42.782;23.274;2023-03-02T08:20:09;5.97;;;5.57;;
42118;SDS011;27783;42.782;23.274;2023-03-02T08:22:35;6.38;;;4.90;;
42118;SDS011;27783;42.782;23.274;2023-03-02T08:25:00;6.30;;;5.75;;
42118;SDS011;27783;42.782;23.274;2023-03-02T08:27:26;9.82;;;6.85;;
42118;SDS011;27783;42.782;23.274;2023-03-02T08:29:51;7.00;;;6.40;;
42118;SDS011;27783;42.782;23.274;2023-03-02T08:32:18;8.63;;;7.93;;
42118;SDS011;27783;42.782;23.274;2023-03-02T08:34:43;10.85;;;9.95;;
42118;SDS011;27783;42.782;23.274;2023-03-02T08:37:09;10.10;;;9.38;;
42118;SDS011;27783;42.782;23.274;2023-03-02T08:39:34;8.38;;;7.55;;
42118;SDS011;27783;42.782;23.274;2023-03-02T08:41:59;7.30;;;6.70;;
42118;SDS011;27783;42.782;23.274;2023-03-02T08:44:25;8.00;;;7.30;;
42118;SDS011;27783;42.782;23.274;2023-03-02T08:46:50;10.20;;;8.38;;
42118;SDS011;27783;42.782;23.274;2023-03-02T08:49:16;10.38;;;9.48;;
42118;SDS011;27783;42.782;23.274;2023-03-02T08:51:43;16.33;;;14.97;;
42118;SDS011;27783;42.782;23.274;2023-03-02T08:54:09;10.70;;;9.70;;
42118;SDS011;27783;42.782;23.274;2023-03-02T08:56:35;9.20;;;8.30;;
42118;SDS011;27783;42.782;23.274;2023-03-02T08:59:06;7.50;;;6.80;;
42118;SDS011;27783;42.782;23.274;2023-03-02T09:01:35;9.60;;;8.70;;
42118;SDS011;27783;42.782;23.274;2023-03-02T09:04:01;9.50;;;8.50;;
42118;SDS011;27783;42.782;23.274;2023-03-02T09:06:29;6.75;;;6.05;;
42118;SDS011;27783;42.782;23.274;2023-03-02T09:08:56;6.75;;;6.07;;
42118;SDS011;27783;42.782;23.274;2023-03-02T09:11:22;6.57;;;5.88;;
42118;SDS011;27783;42.782;23.274;2023-03-02T09:13:48;7.25;;;6.65;;
42118;SDS011;27783;42.782;23.274;2023-03-02T09:16:13;6.97;;;6.43;;
42118;SDS011;27783;42.782;23.274;2023-03-02T09:18:39;12.07;;;11.07;;
42118;SDS011;27783;42.782;23.274;2023-03-02T09:21:06;10.88;;;9.98;;
42118;SDS011;27783;42.782;23.274;2023-03-02T09:23:32;13.02;;;11.68;;
42118;SDS011;27783;42.782;23.274;2023-03-02T09:25:59;8.38;;;7.57;;
42118;SDS011;27783;42.782;23.274;2023-03-02T09:28:24;7.03;;;6.35;;
42118;SDS011;27783;42.782;23.274;2023-03-02T09:30:51;5.45;;;5.00;;
42118;SDS011;27783;42.782;23.274;2023-03-02T09:33:18;6.70;;;6.20;;
42118;SDS011;27783;42.782;23.274;2023-03-02T09:35:44;5.97;;;5.47;;
42118;SDS011;27783;42.782;23.274;2023-03-02T09:38:11;8.73;;;7.85;;
42118;SDS011;27783;42.782;23.274;2023-03-02T09:40:46;7.25;;;6.65;;
42118;SDS011;27783;42.782;23.274;2023-03-02T09:46:14;6.22;;;5.68;;
42118;SDS011;27783;42.782;23.274;2023-03-02T09:48:50;6.80;;;6.20;;
42118;SDS011;27783;42.782;23.274;2023-03-02T09:51:42;7.45;;;6.75;;
42118;SDS011;27783;42.782;23.274;2023-03-02T09:54:11;6.38;;;5.78;;
42118;SDS011;27783;42.782;23.274;2023-03-02T09:56:41;8.18;;;7.55;;
42118;SDS011;27783;42.782;23.274;2023-03-02T10:02:24;7.05;;;6.35;;
42118;SDS011;27783;42.782;23.274;2023-03-02T10:04:53;6.18;;;5.57;;
42118;SDS011;27783;42.782;23.274;2023-03-02T10:07:25;6.85;;;6.35;;
42118;SDS011;27783;42.782;23.274;2023-03-02T10:09:53;5.68;;;4.25;;
42118;SDS011;27783;42.782;23.274;2023-03-02T10:15:11;6.28;;;5.78;;
42118;SDS011;27783;42.782;23.274;2023-03-02T10:17:56;7.50;;;5.05;;
42118;SDS011;27783;42.782;23.274;2023-03-02T10:23:14;8.43;;;7.72;;
42118;SDS011;27783;42.782;23.274;2023-03-02T10:25:59;7.30;;;6.70;;
42118;SDS011;27783;42.782;23.274;2023-03-02T10:28:37;5.00;;;4.60;;
42118;SDS011;27783;42.782;23.274;2023-03-02T10:31:09;6.00;;;4.80;;
42118;SDS011;27783;42.782;23.274;2023-03-02T10:36:20;4.60;;;4.03;;
42118;SDS011;27783;42.782;23.274;2023-03-02T10:39:05;7.47;;;5.10;;
42118;SDS011;27783;42.782;23.274;2023-03-02T10:41:43;6.22;;;5.35;;
42118;SDS011;27783;42.782;23.274;2023-03-02T10:44:45;5.18;;;4.78;;
42118;SDS011;27783;42.782;23.274;2023-03-02T10:47:22;5.63;;;5.13;;
42118;SDS011;27783;42.782;23.274;2023-03-02T10:49:51;6.65;;;6.15;;
42118;SDS011;27783;42.782;23.274;2023-03-02T10:52:19;6.10;;;5.60;;
42118;SDS011;27783;42.782;23.274;2023-03-02T10:54:48;5.90;;;5.40;;
42118;SDS011;27783;42.782;23.274;2023-03-02T10:57:37;7.60;;;6.75;;
42118;SDS011;27783;42.782;23.274;2023-03-02T11:05:20;4.95;;;4.55;;
42118;SDS011;27783;42.782;23.274;2023-03-02T11:07:58;5.20;;;4.80;;
42118;SDS011;27783;42.782;23.274;2023-03-02T11:10:35;6.93;;;5.95;;
42118;SDS011;27783;42.782;23.274;2023-03-02T11:13:33;4.60;;;4.30;;
42118;SDS011;27783;42.782;23.274;2023-03-02T11:18:51;4.45;;;4.05;;
42118;SDS011;27783;42.782;23.274;2023-03-02T11:21:57;6.30;;;5.80;;
42118;SDS011;27783;42.782;23.274;2023-03-02T11:24:35;4.82;;;4.43;;
42118;SDS011;27783;42.782;23.274;2023-03-02T11:27:06;6.03;;;5.53;;
42118;SDS011;27783;42.782;23.274;2023-03-02T11:29:54;6.40;;;5.90;;
42118;SDS011;27783;42.782;23.274;2023-03-02T11:32:57;6.75;;;6.05;;
42118;SDS011;27783;42.782;23.274;2023-03-02T11:35:46;5.90;;;5.40;;
42118;SDS011;27783;42.782;23.274;2023-03-02T11:38:28;7.18;;;6.57;;
42118;SDS011;27783;42.782;23.274;2023-03-02T11:44:00;6.93;;;6.32;;
42118;SDS011;27783;42.782;23.274;2023-03-02T11:46:49;6.20;;;5.80;;
42118;SDS011;27783;42.782;23.274;2023-03-02T11:49:25;4.35;;;3.97;;
42118;SDS011;27783;42.782;23.274;2023-03-02T11:52:01;4.60;;;4.07;;
42118;SDS011;27783;42.782;23.274;2023-03-02T11:57:03;5.13;;;4.68;;
42118;SDS011;27783;42.782;23.274;2023-03-02T11:59:28;5.63;;;5.22;;
42118;SDS011;27783;42.782;23.274;2023-03-02T12:01:55;6.43;;;5.93;;
42118;SDS011;27783;42.782;23.274;2023-03-02T12:06:58;18.40;;;16.98;;
42118;SDS011;27783;42.782;23.274;2023-03-02T12:09:29;10.18;;;9.43;;
42118;SDS011;27783;42.782;23.274;2023-03-02T12:12:46;8.13;;;7.47;;
42118;SDS011;27783;42.782;23.274;2023-03-02T12:15:00;7.00;;;6.38;;
42118;SDS011;27783;42.782;23.274;2023-03-02T12:20:06;5.88;;;5.28;;
42118;SDS011;27783;42.782;23.274;2023-03-02T12:22:35;7.90;;;7.30;;
42118;SDS011;27783;42.782;23.274;2023-03-02T12:27:36;5.95;;;5.45;;
42118;SDS011;27783;42.782;23.274;2023-03-02T12:33:24;8.38;;;7.60;;
42118;SDS011;27783;42.782;23.274;2023-03-02T12:35:45;14.55;;;11.98;;
42118;SDS011;27783;42.782;23.274;2023-03-02T12:41:10;7.82;;;7.03;;
42118;SDS011;27783;42.782;23.274;2023-03-02T12:44:06;5.25;;;4.80;;
42118;SDS011;27783;42.782;23.274;2023-03-02T12:46:51;5.57;;;5.05;;
42118;SDS011;27783;42.782;23.274;2023-03-02T12:52:34;5.75;;;5.25;;
42118;SDS011;27783;42.782;23.274;2023-03-02T13:00:13;12.00;;;11.00;;
42118;SDS011;27783;42.782;23.274;2023-03-02T13:02:46;9.25;;;8.55;;
42118;SDS011;27783;42.782;23.274;2023-03-02T13:05:24;6.32;;;5.82;;
42118;SDS011;27783;42.782;23.274;2023-03-02T13:08:00;7.47;;;6.78;;
42118;SDS011;27783;42.782;23.274;2023-03-02T13:10:33;7.20;;;6.50;;
42118;SDS011;27783;42.782;23.274;2023-03-02T13:13:03;6.25;;;5.65;;
42118;SDS011;27783;42.782;23.274;2023-03-02T13:18:19;6.72;;;6.10;;
42118;SDS011;27783;42.782;23.274;2023-03-02T13:20:46;7.72;;;7.07;;
42118;SDS011;27783;42.782;23.274;2023-03-02T13:23:14;7.32;;;6.72;;
42118;SDS011;27783;42.782;23.274;2023-03-02T13:25:51;9.52;;;8.73;;
42118;SDS011;27783;42.782;23.274;2023-03-02T13:31:16;9.40;;;7.63;;
42118;SDS011;27783;42.782;23.274;2023-03-02T13:33:47;8.15;;;7.45;;
42118;SDS011;27783;42.782;23.274;2023-03-02T13:36:25;9.30;;;8.55;;
42118;SDS011;27783;42.782;23.274;2023-03-02T13:38:57;7.15;;;6.55;;
42118;SDS011;27783;42.782;23.274;2023-03-02T13:41:31;10.50;;;7.32;;
42118;SDS011;27783;42.782;23.274;2023-03-02T13:43:57;10.82;;;9.75;;
42118;SDS011;27783;42.782;23.274;2023-03-02T13:46:35;19.38;;;15.23;;
42118;SDS011;27783;42.782;23.274;2023-03-02T13:49:03;21.13;;;18.85;;
42118;SDS011;27783;42.782;23.274;2023-03-02T13:51:36;7.38;;;6.68;;
42118;SDS011;27783;42.782;23.274;2023-03-02T13:54:21;7.03;;;5.38;;
42118;SDS011;27783;42.782;23.274;2023-03-02T13:56:52;15.45;;;13.35;;
42118;SDS011;27783;42.782;23.274;2023-03-02T13:59:18;16.70;;;14.93;;
42118;SDS011;27783;42.782;23.274;2023-03-02T14:01:46;9.00;;;7.50;;
42118;SDS011;27783;42.782;23.274;2023-03-02T14:04:14;12.68;;;11.50;;
42118;SDS011;27783;42.782;23.274;2023-03-02T14:07:00;15.95;;;11.27;;
42118;SDS011;27783;42.782;23.274;2023-03-02T14:09:26;12.13;;;9.75;;
42118;SDS011;27783;42.782;23.274;2023-03-02T14:11:55;10.77;;;9.77;;
42118;SDS011;27783;42.782;23.274;2023-03-02T14:14:24;12.70;;;11.40;;
42118;SDS011;27783;42.782;23.274;2023-03-02T14:16:52;14.38;;;11.98;;
42118;SDS011;27783;42.782;23.274;2023-03-02T14:19:18;13.88;;;12.43;;
42118;SDS011;27783;42.782;23.274;2023-03-02T14:21:45;18.73;;;16.10;;
42118;SDS011;27783;42.782;23.274;2023-03-02T14:24:17;20.02;;;16.33;;
42118;SDS011;27783;42.782;23.274;2023-03-02T14:26:44;23.40;;;19.63;;
42118;SDS011;27783;42.782;23.274;2023-03-02T14:31:59;19.40;;;16.42;;
42118;SDS011;27783;42.782;23.274;2023-03-02T14:34:34;53.92;;;40.35;;
42118;SDS011;27783;42.782;23.274;2023-03-02T14:37:04;19.58;;;17.48;;
42118;SDS011;27783;42.782;23.274;2023-03-02T14:39:47;24.48;;;19.45;;
42118;SDS011;27783;42.782;23.274;2023-03-02T14:42:20;26.37;;;20.00;;
42118;SDS011;27783;42.782;23.274;2023-03-02T14:44:49;16.30;;;14.60;;
42118;SDS011;27783;42.782;23.274;2023-03-02T14:47:15;23.90;;;17.65;;
42118;SDS011;27783;42.782;23.274;2023-03-02T14:49:44;13.75;;;12.35;;
42118;SDS011;27783;42.782;23.274;2023-03-02T14:52:32;14.00;;;12.43;;
42118;SDS011;27783;42.782;23.274;2023-03-02T14:55:02;10.13;;;8.90;;
42118;SDS011;27783;42.782;23.274;2023-03-02T14:57:34;22.60;;;20.30;;
42118;SDS011;27783;42.782;23.274;2023-03-02T15:00:02;13.20;;;11.90;;
42118;SDS011;27783;42.782;23.274;2023-03-02T15:02:29;13.00;;;11.70;;
42118;SDS011;27783;42.782;23.274;2023-03-02T15:04:54;11.95;;;10.73;;
42118;SDS011;27783;42.782;23.274;2023-03-02T15:07:22;33.08;;;30.13;;
42118;SDS011;27783;42.782;23.274;2023-03-02T15:09:58;20.90;;;17.58;;
42118;SDS011;27783;42.782;23.274;2023-03-02T15:12:30;13.23;;;10.43;;
42118;SDS011;27783;42.782;23.274;2023-03-02T15:14:58;10.70;;;9.50;;
42118;SDS011;27783;42.782;23.274;2023-03-02T15:17:26;9.50;;;8.50;;
42118;SDS011;27783;42.782;23.274;2023-03-02T15:19:52;13.95;;;12.70;;
42118;SDS011;27783;42.782;23.274;2023-03-02T15:22:19;9.65;;;8.45;;
42118;SDS011;27783;42.782;23.274;2023-03-02T15:24:48;10.85;;;9.38;;
42118;SDS011;27783;42.782;23.274;2023-03-02T15:27:14;9.93;;;8.93;;
42118;SDS011;27783;42.782;23.274;2023-03-02T15:29:43;21.20;;;19.20;;
42118;SDS011;27783;42.782;23.274;2023-03-02T15:32:12;15.30;;;13.93;;
42118;SDS011;27783;42.782;23.274;2023-03-02T15:34:52;12.38;;;10.65;;
42118;SDS011;27783;42.782;23.274;2023-03-02T15:37:17;8.10;;;6.97;;
42118;SDS011;27783;42.782;23.274;2023-03-02T15:39:44;6.97;;;6.27;;
42118;SDS011;27783;42.782;23.274;2023-03-02T15:42:10;8.07;;;7.32;;
42118;SDS011;27783;42.782;23.274;2023-03-02T15:44:37;10.05;;;8.73;;
42118;SDS011;27783;42.782;23.274;2023-03-02T15:47:02;10.77;;;8.93;;
42118;SDS011;27783;42.782;23.274;2023-03-02T15:49:30;10.85;;;9.82;;
42118;SDS011;27783;42.782;23.274;2023-03-02T15:54:23;11.27;;;8.95;;
42118;SDS011;27783;42.782;23.274;2023-03-02T15:56:49;11.02;;;9.80;;
42118;SDS011;27783;42.782;23.274;2023-03-02T15:59:18;14.25;;;12.88;;